sensor_id;sensor_type;location;lat;lon;timestamp;temperature;humidity
12870;DHT22;6503;48.572;13.460;2022-11-09T00:01:15;5.50;99.90
12870;DHT22;6503;48.572;13.460;2022-11-09T00:03:43;5.50;99.90
12870;DHT22;6503;48.572;13.460;2022-11-09T00:06:12;5.60;99.90
12870;DHT22;6503;48.572;13.460;2022-11-09T00:08:40;5.70;99.90
12870;DHT22;6503;48.572;13.460;2022-11-09T00:11:09;5.80;99.90
12870;DHT22;6503;48.572;13.460;2022-11-09T00:13:38;5.90;99.90
12870;DHT22;6503;48.572;13.460;2022-11-09T00:16:06;6.00;99.90
12870;DHT22;6503;48.572;13.460;2022-11-09T00:18:33;6.00;99.90
12870;DHT22;6503;48.572;13.460;2022-11-09T00:21:06;6.10;99.90
12870;DHT22;6503;48.572;13.460;2022-11-09T00:23:33;6.10;99.90
12870;DHT22;6503;48.572;13.460;2022-11-09T00:26:00;6.20;99.90
12870;DHT22;6503;48.572;13.460;2022-11-09T00:28:27;6.10;99.90
12870;DHT22;6503;48.572;13.460;2022-11-09T00:30:58;6.00;99.90
12870;DHT22;6503;48.572;13.460;2022-11-09T00:33:25;6.00;99.90
12870;DHT22;6503;48.572;13.460;2022-11-09T00:35:51;6.00;99.90
12870;DHT22;6503;48.572;13.460;2022-11-09T00:38:20;6.00;99.90
12870;DHT22;6503;48.572;13.460;2022-11-09T00:40:47;6.00;99.90
12870;DHT22;6503;48.572;13.460;2022-11-09T00:43:14;6.00;99.90
12870;DHT22;6503;48.572;13.460;2022-11-09T00:45:41;6.00;99.90
12870;DHT22;6503;48.572;13.460;2022-11-09T00:48:10;6.00;99.90
12870;DHT22;6503;48.572;13.460;2022-11-09T00:50:37;6.00;99.90
12870;DHT22;6503;48.572;13.460;2022-11-09T00:53:04;6.00;99.90
12870;DHT22;6503;48.572;13.460;2022-11-09T00:55:32;5.90;99.90
12870;DHT22;6503;48.572;13.460;2022-11-09T00:57:59;5.90;99.90
12870;DHT22;6503;48.572;13.460;2022-11-09T01:00:26;6.10;99.90
12870;DHT22;6503;48.572;13.460;2022-11-09T01:02:54;5.90;99.90
12870;DHT22;6503;48.572;13.460;2022-11-09T01:05:21;6.10;99.90
12870;DHT22;6503;48.572;13.460;2022-11-09T01:07:48;6.10;99.90
12870;DHT22;6503;48.572;13.460;2022-11-09T01:10:15;6.10;99.90
12870;DHT22;6503;48.572;13.460;2022-11-09T01:12:44;6.10;99.90
12870;DHT22;6503;48.572;13.460;2022-11-09T01:15:12;6.20;99.90
12870;DHT22;6503;48.572;13.460;2022-11-09T01:17:39;6.10;99.90
12870;DHT22;6503;48.572;13.460;2022-11-09T01:20:08;6.10;99.90
12870;DHT22;6503;48.572;13.460;2022-11-09T01:22:35;6.10;99.90
12870;DHT22;6503;48.572;13.460;2022-11-09T01:25:02;6.10;99.90
12870;DHT22;6503;48.572;13.460;2022-11-09T01:27:29;6.10;99.90
12870;DHT22;6503;48.572;13.460;2022-11-09T01:29:57;6.10;99.90
12870;DHT22;6503;48.572;13.460;2022-11-09T01:32:24;6.20;99.90
12870;DHT22;6503;48.572;13.460;2022-11-09T01:34:51;6.20;99.90
12870;DHT22;6503;48.572;13.460;2022-11-09T01:37:19;6.20;99.90
12870;DHT22;6503;48.572;13.460;2022-11-09T01:39:46;6.20;99.90
12870;DHT22;6503;48.572;13.460;2022-11-09T01:42:13;6.20;99.90
12870;DHT22;6503;48.572;13.460;2022-11-09T01:44:40;6.10;99.90
12870;DHT22;6503;48.572;13.460;2022-11-09T01:47:12;6.10;99.90
12870;DHT22;6503;48.572;13.460;2022-11-09T01:49:43;6.10;99.90
12870;DHT22;6503;48.572;13.460;2022-11-09T01:52:15;6.10;99.90
12870;DHT22;6503;48.572;13.460;2022-11-09T01:54:46;6.10;99.90
12870;DHT22;6503;48.572;13.460;2022-11-09T01:57:17;6.10;99.90
12870;DHT22;6503;48.572;13.460;2022-11-09T01:59:48;6.10;99.90
12870;DHT22;6503;48.572;13.460;2022-11-09T02:02:18;6.10;99.90
12870;DHT22;6503;48.572;13.460;2022-11-09T02:04:48;6.00;99.90
12870;DHT22;6503;48.572;13.460;2022-11-09T02:07:17;6.00;99.90
12870;DHT22;6503;48.572;13.460;2022-11-09T02:09:47;6.10;99.90
12870;DHT22;6503;48.572;13.460;2022-11-09T02:12:16;6.10;99.90
12870;DHT22;6503;48.572;13.460;2022-11-09T02:14:44;6.10;99.90
12870;DHT22;6503;48.572;13.460;2022-11-09T02:17:11;6.00;99.90
12870;DHT22;6503;48.572;13.460;2022-11-09T02:19:40;6.00;99.90
12870;DHT22;6503;48.572;13.460;2022-11-09T02:22:08;6.10;99.90
12870;DHT22;6503;48.572;13.460;2022-11-09T02:24:35;6.10;99.90
12870;DHT22;6503;48.572;13.460;2022-11-09T02:27:05;6.10;99.90
12870;DHT22;6503;48.572;13.460;2022-11-09T02:29:35;6.10;99.90
12870;DHT22;6503;48.572;13.460;2022-11-09T02:32:05;6.10;99.90
12870;DHT22;6503;48.572;13.460;2022-11-09T02:34:33;6.00;99.90
12870;DHT22;6503;48.572;13.460;2022-11-09T02:37:00;5.90;99.90
12870;DHT22;6503;48.572;13.460;2022-11-09T02:39:29;5.90;99.90
12870;DHT22;6503;48.572;13.460;2022-11-09T02:41:58;5.80;99.90
12870;DHT22;6503;48.572;13.460;2022-11-09T02:44:26;5.70;99.90
12870;DHT22;6503;48.572;13.460;2022-11-09T02:46:54;5.70;99.90
12870;DHT22;6503;48.572;13.460;2022-11-09T02:49:20;5.80;99.90
12870;DHT22;6503;48.572;13.460;2022-11-09T02:51:47;5.80;99.90
12870;DHT22;6503;48.572;13.460;2022-11-09T02:54:14;5.90;99.90
12870;DHT22;6503;48.572;13.460;2022-11-09T02:56:42;5.80;99.90
12870;DHT22;6503;48.572;13.460;2022-11-09T02:59:09;5.80;99.90
12870;DHT22;6503;48.572;13.460;2022-11-09T03:01:36;5.90;99.90
12870;DHT22;6503;48.572;13.460;2022-11-09T03:04:02;5.80;99.90
12870;DHT22;6503;48.572;13.460;2022-11-09T03:06:29;5.80;99.90
12870;DHT22;6503;48.572;13.460;2022-11-09T03:09:00;5.90;99.90
12870;DHT22;6503;48.572;13.460;2022-11-09T03:11:27;5.90;99.90
12870;DHT22;6503;48.572;13.460;2022-11-09T03:13:56;5.90;99.90
12870;DHT22;6503;48.572;13.460;2022-11-09T03:16:22;5.90;99.90
12870;DHT22;6503;48.572;13.460;2022-11-09T03:18:50;5.90;99.90
12870;DHT22;6503;48.572;13.460;2022-11-09T03:21:17;5.90;99.90
12870;DHT22;6503;48.572;13.460;2022-11-09T03:23:43;5.80;99.90
12870;DHT22;6503;48.572;13.460;2022-11-09T03:26:10;5.70;99.90
12870;DHT22;6503;48.572;13.460;2022-11-09T03:28:37;5.60;99.90
12870;DHT22;6503;48.572;13.460;2022-11-09T03:31:06;5.60;99.90
12870;DHT22;6503;48.572;13.460;2022-11-09T03:33:33;5.60;99.90
12870;DHT22;6503;48.572;13.460;2022-11-09T03:36:00;5.60;99.90
12870;DHT22;6503;48.572;13.460;2022-11-09T03:38:27;5.60;99.90
12870;DHT22;6503;48.572;13.460;2022-11-09T03:40:54;5.60;99.90
12870;DHT22;6503;48.572;13.460;2022-11-09T03:43:21;5.60;99.90
12870;DHT22;6503;48.572;13.460;2022-11-09T03:45:48;5.70;99.90
12870;DHT22;6503;48.572;13.460;2022-11-09T03:48:17;5.60;99.90
12870;DHT22;6503;48.572;13.460;2022-11-09T03:50:43;5.60;99.90
12870;DHT22;6503;48.572;13.460;2022-11-09T03:53:11;5.60;99.90
12870;DHT22;6503;48.572;13.460;2022-11-09T03:55:39;5.50;99.90
12870;DHT22;6503;48.572;13.460;2022-11-09T03:58:08;5.40;99.90
12870;DHT22;6503;48.572;13.460;2022-11-09T04:00:41;5.40;99.90
12870;DHT22;6503;48.572;13.460;2022-11-09T04:03:08;5.40;99.90
12870;DHT22;6503;48.572;13.460;2022-11-09T04:05:36;5.30;99.90
12870;DHT22;6503;48.572;13.460;2022-11-09T04:08:03;5.30;99.90
12870;DHT22;6503;48.572;13.460;2022-11-09T04:10:30;5.40;99.90
12870;DHT22;6503;48.572;13.460;2022-11-09T04:12:57;5.50;99.90
12870;DHT22;6503;48.572;13.460;2022-11-09T04:15:24;5.40;99.90
12870;DHT22;6503;48.572;13.460;2022-11-09T04:17:54;5.40;99.90
12870;DHT22;6503;48.572;13.460;2022-11-09T04:20:21;5.30;99.90
12870;DHT22;6503;48.572;13.460;2022-11-09T04:22:54;5.40;99.90
12870;DHT22;6503;48.572;13.460;2022-11-09T04:25:21;5.40;99.90
12870;DHT22;6503;48.572;13.460;2022-11-09T04:27:52;5.50;99.90
12870;DHT22;6503;48.572;13.460;2022-11-09T04:30:19;5.50;99.90
12870;DHT22;6503;48.572;13.460;2022-11-09T04:32:47;5.50;99.90
12870;DHT22;6503;48.572;13.460;2022-11-09T04:35:14;5.50;99.90
12870;DHT22;6503;48.572;13.460;2022-11-09T04:37:41;5.60;99.90
12870;DHT22;6503;48.572;13.460;2022-11-09T04:40:11;5.60;99.90
12870;DHT22;6503;48.572;13.460;2022-11-09T04:42:38;5.60;99.90
12870;DHT22;6503;48.572;13.460;2022-11-09T04:45:05;5.50;99.90
12870;DHT22;6503;48.572;13.460;2022-11-09T04:47:33;5.40;99.90
12870;DHT22;6503;48.572;13.460;2022-11-09T04:49:59;5.20;99.90
12870;DHT22;6503;48.572;13.460;2022-11-09T04:52:26;5.20;99.90
12870;DHT22;6503;48.572;13.460;2022-11-09T04:54:53;5.20;99.90
12870;DHT22;6503;48.572;13.460;2022-11-09T04:57:23;5.20;99.90
12870;DHT22;6503;48.572;13.460;2022-11-09T04:59:49;5.10;99.90
12870;DHT22;6503;48.572;13.460;2022-11-09T05:02:16;5.00;99.90
12870;DHT22;6503;48.572;13.460;2022-11-09T05:04:43;5.00;99.90
12870;DHT22;6503;48.572;13.460;2022-11-09T05:07:10;5.00;99.90
12870;DHT22;6503;48.572;13.460;2022-11-09T05:09:37;5.10;99.90
12870;DHT22;6503;48.572;13.460;2022-11-09T05:12:04;5.10;99.90
12870;DHT22;6503;48.572;13.460;2022-11-09T05:14:32;5.00;99.90
12870;DHT22;6503;48.572;13.460;2022-11-09T05:16:59;5.10;99.90
12870;DHT22;6503;48.572;13.460;2022-11-09T05:19:25;5.10;99.90
12870;DHT22;6503;48.572;13.460;2022-11-09T05:21:52;5.10;99.90
12870;DHT22;6503;48.572;13.460;2022-11-09T05:24:19;5.00;99.90
12870;DHT22;6503;48.572;13.460;2022-11-09T05:26:45;5.00;99.90
12870;DHT22;6503;48.572;13.460;2022-11-09T05:29:12;5.00;99.90
12870;DHT22;6503;48.572;13.460;2022-11-09T05:31:40;5.10;99.90
12870;DHT22;6503;48.572;13.460;2022-11-09T05:34:11;5.10;99.90
12870;DHT22;6503;48.572;13.460;2022-11-09T05:36:38;5.10;99.90
12870;DHT22;6503;48.572;13.460;2022-11-09T05:39:05;5.20;99.90
12870;DHT22;6503;48.572;13.460;2022-11-09T05:41:32;5.20;99.90
12870;DHT22;6503;48.572;13.460;2022-11-09T05:43:58;5.20;99.90
12870;DHT22;6503;48.572;13.460;2022-11-09T05:46:25;5.20;99.90
12870;DHT22;6503;48.572;13.460;2022-11-09T05:48:53;5.30;99.90
12870;DHT22;6503;48.572;13.460;2022-11-09T05:51:21;5.30;99.90
12870;DHT22;6503;48.572;13.460;2022-11-09T05:53:48;5.40;99.90
12870;DHT22;6503;48.572;13.460;2022-11-09T05:56:15;5.50;99.90
12870;DHT22;6503;48.572;13.460;2022-11-09T05:58:42;5.50;99.90
12870;DHT22;6503;48.572;13.460;2022-11-09T06:01:11;5.50;99.90
12870;DHT22;6503;48.572;13.460;2022-11-09T06:03:38;5.50;99.90
12870;DHT22;6503;48.572;13.460;2022-11-09T06:06:09;5.60;99.90
12870;DHT22;6503;48.572;13.460;2022-11-09T06:08:36;5.60;99.90
12870;DHT22;6503;48.572;13.460;2022-11-09T06:11:05;5.60;99.90
12870;DHT22;6503;48.572;13.460;2022-11-09T06:13:32;5.60;99.90
12870;DHT22;6503;48.572;13.460;2022-11-09T06:16:01;5.60;99.90
12870;DHT22;6503;48.572;13.460;2022-11-09T06:18:29;5.60;99.90
12870;DHT22;6503;48.572;13.460;2022-11-09T06:20:58;5.50;99.90
12870;DHT22;6503;48.572;13.460;2022-11-09T06:23:27;5.50;99.90
12870;DHT22;6503;48.572;13.460;2022-11-09T06:25:56;5.50;99.90
12870;DHT22;6503;48.572;13.460;2022-11-09T06:28:23;5.40;99.90
12870;DHT22;6503;48.572;13.460;2022-11-09T06:30:50;5.40;99.90
12870;DHT22;6503;48.572;13.460;2022-11-09T06:33:20;5.40;99.90
12870;DHT22;6503;48.572;13.460;2022-11-09T06:35:50;5.50;99.90
12870;DHT22;6503;48.572;13.460;2022-11-09T06:38:17;5.50;99.90
12870;DHT22;6503;48.572;13.460;2022-11-09T06:40:45;5.60;99.90
12870;DHT22;6503;48.572;13.460;2022-11-09T06:43:16;5.70;99.90
12870;DHT22;6503;48.572;13.460;2022-11-09T06:45:43;5.70;99.90
12870;DHT22;6503;48.572;13.460;2022-11-09T06:48:10;5.70;99.90
12870;DHT22;6503;48.572;13.460;2022-11-09T06:50:37;5.80;99.90
12870;DHT22;6503;48.572;13.460;2022-11-09T06:53:07;5.80;99.90
12870;DHT22;6503;48.572;13.460;2022-11-09T06:55:35;5.80;99.90
12870;DHT22;6503;48.572;13.460;2022-11-09T06:58:07;5.70;99.90
12870;DHT22;6503;48.572;13.460;2022-11-09T07:00:35;5.80;99.90
12870;DHT22;6503;48.572;13.460;2022-11-09T07:03:03;5.90;99.90
12870;DHT22;6503;48.572;13.460;2022-11-09T07:05:30;5.90;99.90
12870;DHT22;6503;48.572;13.460;2022-11-09T07:07:57;5.90;99.90
12870;DHT22;6503;48.572;13.460;2022-11-09T07:10:28;5.90;99.90
12870;DHT22;6503;48.572;13.460;2022-11-09T07:12:59;5.90;99.90
12870;DHT22;6503;48.572;13.460;2022-11-09T07:15:29;5.90;99.90
12870;DHT22;6503;48.572;13.460;2022-11-09T07:17:57;5.90;99.90
12870;DHT22;6503;48.572;13.460;2022-11-09T07:20:24;6.00;99.90
12870;DHT22;6503;48.572;13.460;2022-11-09T07:22:52;6.00;99.90
12870;DHT22;6503;48.572;13.460;2022-11-09T07:25:19;6.00;99.90
12870;DHT22;6503;48.572;13.460;2022-11-09T07:27:46;6.00;99.90
12870;DHT22;6503;48.572;13.460;2022-11-09T07:30:14;6.10;99.90
12870;DHT22;6503;48.572;13.460;2022-11-09T07:32:42;6.10;99.90
12870;DHT22;6503;48.572;13.460;2022-11-09T07:35:10;6.20;99.90
12870;DHT22;6503;48.572;13.460;2022-11-09T07:37:37;6.20;99.90
12870;DHT22;6503;48.572;13.460;2022-11-09T07:40:09;6.10;99.90
12870;DHT22;6503;48.572;13.460;2022-11-09T07:42:37;6.00;99.90
12870;DHT22;6503;48.572;13.460;2022-11-09T07:45:05;6.00;99.90
12870;DHT22;6503;48.572;13.460;2022-11-09T07:47:35;6.10;99.90
12870;DHT22;6503;48.572;13.460;2022-11-09T07:50:05;6.10;99.90
12870;DHT22;6503;48.572;13.460;2022-11-09T07:52:32;6.20;99.90
12870;DHT22;6503;48.572;13.460;2022-11-09T07:54:59;6.30;99.90
12870;DHT22;6503;48.572;13.460;2022-11-09T07:57:25;6.40;99.90
12870;DHT22;6503;48.572;13.460;2022-11-09T07:59:52;6.40;99.90
12870;DHT22;6503;48.572;13.460;2022-11-09T08:02:19;6.40;99.90
12870;DHT22;6503;48.572;13.460;2022-11-09T08:04:46;6.50;99.90
12870;DHT22;6503;48.572;13.460;2022-11-09T08:07:18;6.50;99.90
12870;DHT22;6503;48.572;13.460;2022-11-09T08:09:45;6.50;99.90
12870;DHT22;6503;48.572;13.460;2022-11-09T08:12:13;6.60;99.90
12870;DHT22;6503;48.572;13.460;2022-11-09T08:14:41;6.70;99.90
12870;DHT22;6503;48.572;13.460;2022-11-09T08:17:08;6.60;99.90
12870;DHT22;6503;48.572;13.460;2022-11-09T08:19:35;6.70;99.90
12870;DHT22;6503;48.572;13.460;2022-11-09T08:22:02;6.80;99.90
12870;DHT22;6503;48.572;13.460;2022-11-09T08:24:30;6.70;99.90
12870;DHT22;6503;48.572;13.460;2022-11-09T08:26:57;6.70;99.90
12870;DHT22;6503;48.572;13.460;2022-11-09T08:29:24;6.70;99.90
12870;DHT22;6503;48.572;13.460;2022-11-09T08:31:51;6.70;99.90
12870;DHT22;6503;48.572;13.460;2022-11-09T08:34:18;6.80;99.90
12870;DHT22;6503;48.572;13.460;2022-11-09T08:36:45;6.60;99.90
12870;DHT22;6503;48.572;13.460;2022-11-09T08:39:12;6.50;99.90
12870;DHT22;6503;48.572;13.460;2022-11-09T08:41:41;6.60;99.90
12870;DHT22;6503;48.572;13.460;2022-11-09T08:44:08;6.70;99.90
12870;DHT22;6503;48.572;13.460;2022-11-09T08:46:35;6.70;99.90
12870;DHT22;6503;48.572;13.460;2022-11-09T08:49:02;6.80;99.90
12870;DHT22;6503;48.572;13.460;2022-11-09T08:51:30;6.80;99.90
12870;DHT22;6503;48.572;13.460;2022-11-09T08:53:59;6.80;99.90
12870;DHT22;6503;48.572;13.460;2022-11-09T08:56:28;6.80;99.90
12870;DHT22;6503;48.572;13.460;2022-11-09T08:58:56;6.80;99.90
12870;DHT22;6503;48.572;13.460;2022-11-09T09:01:25;6.80;99.90
12870;DHT22;6503;48.572;13.460;2022-11-09T09:03:52;6.90;99.90
12870;DHT22;6503;48.572;13.460;2022-11-09T09:06:19;6.90;99.90
12870;DHT22;6503;48.572;13.460;2022-11-09T09:08:47;7.00;99.90
12870;DHT22;6503;48.572;13.460;2022-11-09T09:11:14;7.00;99.90
12870;DHT22;6503;48.572;13.460;2022-11-09T09:13:42;7.00;99.90
12870;DHT22;6503;48.572;13.460;2022-11-09T09:16:13;7.00;99.90
12870;DHT22;6503;48.572;13.460;2022-11-09T09:18:42;7.10;99.90
12870;DHT22;6503;48.572;13.460;2022-11-09T09:21:10;7.10;99.90
12870;DHT22;6503;48.572;13.460;2022-11-09T09:23:40;7.10;99.90
12870;DHT22;6503;48.572;13.460;2022-11-09T09:26:08;7.10;99.90
12870;DHT22;6503;48.572;13.460;2022-11-09T09:28:37;7.20;99.90
12870;DHT22;6503;48.572;13.460;2022-11-09T09:31:05;7.20;99.90
12870;DHT22;6503;48.572;13.460;2022-11-09T09:33:35;7.10;99.90
12870;DHT22;6503;48.572;13.460;2022-11-09T09:36:06;7.00;99.90
12870;DHT22;6503;48.572;13.460;2022-11-09T09:38:34;6.90;99.90
12870;DHT22;6503;48.572;13.460;2022-11-09T09:41:02;6.80;99.90
12870;DHT22;6503;48.572;13.460;2022-11-09T09:43:33;6.80;99.90
12870;DHT22;6503;48.572;13.460;2022-11-09T09:46:05;6.90;99.90
12870;DHT22;6503;48.572;13.460;2022-11-09T09:48:40;7.00;99.90
12870;DHT22;6503;48.572;13.460;2022-11-09T09:51:16;7.20;99.90
12870;DHT22;6503;48.572;13.460;2022-11-09T09:53:48;7.40;99.90
12870;DHT22;6503;48.572;13.460;2022-11-09T09:56:22;7.40;99.90
12870;DHT22;6503;48.572;13.460;2022-11-09T09:58:54;7.40;99.90
12870;DHT22;6503;48.572;13.460;2022-11-09T10:01:29;7.30;99.90
12870;DHT22;6503;48.572;13.460;2022-11-09T10:04:02;7.30;99.90
12870;DHT22;6503;48.572;13.460;2022-11-09T10:06:39;7.40;99.90
12870;DHT22;6503;48.572;13.460;2022-11-09T10:09:21;7.60;99.90
12870;DHT22;6503;48.572;13.460;2022-11-09T10:11:58;7.70;99.90
12870;DHT22;6503;48.572;13.460;2022-11-09T10:17:28;7.80;99.90
12870;DHT22;6503;48.572;13.460;2022-11-09T10:20:08;7.90;99.90
12870;DHT22;6503;48.572;13.460;2022-11-09T10:22:58;8.00;99.90
12870;DHT22;6503;48.572;13.460;2022-11-09T10:25:28;8.10;99.90
12870;DHT22;6503;48.572;13.460;2022-11-09T10:28:03;7.90;99.90
12870;DHT22;6503;48.572;13.460;2022-11-09T10:30:33;8.00;99.90
12870;DHT22;6503;48.572;13.460;2022-11-09T10:33:13;8.00;99.90
12870;DHT22;6503;48.572;13.460;2022-11-09T10:35:44;8.00;99.90
12870;DHT22;6503;48.572;13.460;2022-11-09T10:38:17;8.10;99.90
12870;DHT22;6503;48.572;13.460;2022-11-09T10:40:51;8.20;99.90
12870;DHT22;6503;48.572;13.460;2022-11-09T10:43:19;8.10;99.90
12870;DHT22;6503;48.572;13.460;2022-11-09T10:45:57;8.20;99.90
12870;DHT22;6503;48.572;13.460;2022-11-09T10:48:31;8.20;99.90
12870;DHT22;6503;48.572;13.460;2022-11-09T10:51:00;8.30;99.90
12870;DHT22;6503;48.572;13.460;2022-11-09T10:53:28;8.40;99.90
12870;DHT22;6503;48.572;13.460;2022-11-09T10:55:57;8.60;99.90
12870;DHT22;6503;48.572;13.460;2022-11-09T10:58:29;8.50;99.90
12870;DHT22;6503;48.572;13.460;2022-11-09T11:01:02;8.30;99.90
12870;DHT22;6503;48.572;13.460;2022-11-09T11:03:33;8.40;99.90
12870;DHT22;6503;48.572;13.460;2022-11-09T11:06:04;8.40;99.90
12870;DHT22;6503;48.572;13.460;2022-11-09T11:08:37;8.60;99.90
12870;DHT22;6503;48.572;13.460;2022-11-09T11:11:19;8.60;99.90
12870;DHT22;6503;48.572;13.460;2022-11-09T11:13:47;8.80;99.90
12870;DHT22;6503;48.572;13.460;2022-11-09T11:16:26;8.90;99.90
12870;DHT22;6503;48.572;13.460;2022-11-09T11:18:54;9.00;99.90
12870;DHT22;6503;48.572;13.460;2022-11-09T11:21:25;9.20;99.90
12870;DHT22;6503;48.572;13.460;2022-11-09T11:24:14;9.30;99.90
12870;DHT22;6503;48.572;13.460;2022-11-09T11:26:47;9.50;99.90
12870;DHT22;6503;48.572;13.460;2022-11-09T11:29:31;9.80;99.90
12870;DHT22;6503;48.572;13.460;2022-11-09T11:31:59;9.80;99.90
12870;DHT22;6503;48.572;13.460;2022-11-09T11:34:26;9.70;99.90
12870;DHT22;6503;48.572;13.460;2022-11-09T11:37:06;9.80;99.90
12870;DHT22;6503;48.572;13.460;2022-11-09T11:39:43;9.70;99.90
12870;DHT22;6503;48.572;13.460;2022-11-09T11:42:27;9.70;99.90
12870;DHT22;6503;48.572;13.460;2022-11-09T11:45:14;9.70;99.90
12870;DHT22;6503;48.572;13.460;2022-11-09T11:47:54;9.70;99.90
12870;DHT22;6503;48.572;13.460;2022-11-09T11:50:29;9.80;99.90
12870;DHT22;6503;48.572;13.460;2022-11-09T11:53:20;10.10;99.90
12870;DHT22;6503;48.572;13.460;2022-11-09T11:58:42;10.30;99.90
12870;DHT22;6503;48.572;13.460;2022-11-09T12:01:24;10.20;99.90
12870;DHT22;6503;48.572;13.460;2022-11-09T12:04:22;10.30;99.90
12870;DHT22;6503;48.572;13.460;2022-11-09T12:07:00;10.40;99.90
12870;DHT22;6503;48.572;13.460;2022-11-09T12:12:34;10.30;99.90
12870;DHT22;6503;48.572;13.460;2022-11-09T12:15:25;10.60;99.90
12870;DHT22;6503;48.572;13.460;2022-11-09T12:18:07;10.90;99.90
12870;DHT22;6503;48.572;13.460;2022-11-09T12:20:40;11.10;99.90
12870;DHT22;6503;48.572;13.460;2022-11-09T12:23:31;11.40;99.90
12870;DHT22;6503;48.572;13.460;2022-11-09T12:26:10;11.70;99.90
12870;DHT22;6503;48.572;13.460;2022-11-09T12:28:56;11.90;99.90
12870;DHT22;6503;48.572;13.460;2022-11-09T12:31:37;12.10;99.90
12870;DHT22;6503;48.572;13.460;2022-11-09T12:34:13;12.20;99.90
12870;DHT22;6503;48.572;13.460;2022-11-09T12:36:46;12.20;99.90
12870;DHT22;6503;48.572;13.460;2022-11-09T12:39:20;12.30;99.90
12870;DHT22;6503;48.572;13.460;2022-11-09T12:41:51;12.40;99.90
12870;DHT22;6503;48.572;13.460;2022-11-09T12:44:24;12.30;99.90
12870;DHT22;6503;48.572;13.460;2022-11-09T12:46:58;12.40;99.90
12870;DHT22;6503;48.572;13.460;2022-11-09T12:49:33;12.40;99.90
12870;DHT22;6503;48.572;13.460;2022-11-09T12:52:03;12.50;99.90
12870;DHT22;6503;48.572;13.460;2022-11-09T12:54:34;12.60;99.90
12870;DHT22;6503;48.572;13.460;2022-11-09T12:57:06;12.60;99.90
12870;DHT22;6503;48.572;13.460;2022-11-09T12:59:36;12.70;99.90
12870;DHT22;6503;48.572;13.460;2022-11-09T13:02:03;12.70;99.90
12870;DHT22;6503;48.572;13.460;2022-11-09T13:04:31;12.70;99.90
12870;DHT22;6503;48.572;13.460;2022-11-09T13:07:45;12.70;99.90
12870;DHT22;6503;48.572;13.460;2022-11-09T13:10:38;12.70;99.90
12870;DHT22;6503;48.572;13.460;2022-11-09T13:13:20;12.80;99.90
12870;DHT22;6503;48.572;13.460;2022-11-09T13:16:09;12.80;99.90
12870;DHT22;6503;48.572;13.460;2022-11-09T13:18:49;12.80;99.90
12870;DHT22;6503;48.572;13.460;2022-11-09T13:21:38;12.70;99.90
12870;DHT22;6503;48.572;13.460;2022-11-09T13:27:39;12.30;99.90
12870;DHT22;6503;48.572;13.460;2022-11-09T13:33:19;11.20;99.90
12870;DHT22;6503;48.572;13.460;2022-11-09T13:35:56;10.80;99.90
12870;DHT22;6503;48.572;13.460;2022-11-09T13:38:26;10.70;99.90
12870;DHT22;6503;48.572;13.460;2022-11-09T13:40:55;10.70;99.90
12870;DHT22;6503;48.572;13.460;2022-11-09T13:43:24;10.70;99.90
12870;DHT22;6503;48.572;13.460;2022-11-09T13:45:54;10.60;99.90
12870;DHT22;6503;48.572;13.460;2022-11-09T13:48:34;10.60;99.90
12870;DHT22;6503;48.572;13.460;2022-11-09T13:51:03;10.60;99.90
12870;DHT22;6503;48.572;13.460;2022-11-09T13:53:54;10.70;99.90
12870;DHT22;6503;48.572;13.460;2022-11-09T13:56:26;10.80;99.90
12870;DHT22;6503;48.572;13.460;2022-11-09T13:58:58;10.80;99.90
12870;DHT22;6503;48.572;13.460;2022-11-09T14:01:30;10.80;99.90
12870;DHT22;6503;48.572;13.460;2022-11-09T14:04:01;10.80;99.90
12870;DHT22;6503;48.572;13.460;2022-11-09T14:06:31;10.80;99.90
12870;DHT22;6503;48.572;13.460;2022-11-09T14:08:59;10.70;99.90
12870;DHT22;6503;48.572;13.460;2022-11-09T14:11:46;10.70;99.90
12870;DHT22;6503;48.572;13.460;2022-11-09T14:14:38;10.80;99.90
12870;DHT22;6503;48.572;13.460;2022-11-09T14:17:12;10.80;99.90
12870;DHT22;6503;48.572;13.460;2022-11-09T14:19:51;10.70;99.90
12870;DHT22;6503;48.572;13.460;2022-11-09T14:22:21;10.80;99.90
12870;DHT22;6503;48.572;13.460;2022-11-09T14:24:48;10.70;99.90
12870;DHT22;6503;48.572;13.460;2022-11-09T14:27:19;10.60;99.90
12870;DHT22;6503;48.572;13.460;2022-11-09T14:29:52;10.60;99.90
12870;DHT22;6503;48.572;13.460;2022-11-09T14:32:28;10.60;99.90
12870;DHT22;6503;48.572;13.460;2022-11-09T14:35:19;10.60;99.90
12870;DHT22;6503;48.572;13.460;2022-11-09T14:37:48;10.50;99.90
12870;DHT22;6503;48.572;13.460;2022-11-09T14:40:20;10.50;99.90
12870;DHT22;6503;48.572;13.460;2022-11-09T14:42:53;10.40;99.90
12870;DHT22;6503;48.572;13.460;2022-11-09T14:45:22;10.30;99.90
12870;DHT22;6503;48.572;13.460;2022-11-09T14:47:52;10.30;99.90
12870;DHT22;6503;48.572;13.460;2022-11-09T14:50:23;10.30;99.90
12870;DHT22;6503;48.572;13.460;2022-11-09T14:52:54;10.30;99.90
12870;DHT22;6503;48.572;13.460;2022-11-09T14:55:23;10.20;99.90
12870;DHT22;6503;48.572;13.460;2022-11-09T14:57:53;10.20;99.90
12870;DHT22;6503;48.572;13.460;2022-11-09T15:00:45;10.20;99.90
12870;DHT22;6503;48.572;13.460;2022-11-09T15:03:31;10.20;99.90
12870;DHT22;6503;48.572;13.460;2022-11-09T15:06:05;10.10;99.90
12870;DHT22;6503;48.572;13.460;2022-11-09T15:08:33;10.10;99.90
12870;DHT22;6503;48.572;13.460;2022-11-09T15:11:00;10.10;99.90
12870;DHT22;6503;48.572;13.460;2022-11-09T15:13:31;10.00;99.90
12870;DHT22;6503;48.572;13.460;2022-11-09T15:15:59;10.00;99.90
12870;DHT22;6503;48.572;13.460;2022-11-09T15:18:29;9.90;99.90
12870;DHT22;6503;48.572;13.460;2022-11-09T15:21:12;9.90;99.90
12870;DHT22;6503;48.572;13.460;2022-11-09T15:23:41;9.90;99.90
12870;DHT22;6503;48.572;13.460;2022-11-09T15:26:26;9.90;99.90
12870;DHT22;6503;48.572;13.460;2022-11-09T15:28:53;9.80;99.90
12870;DHT22;6503;48.572;13.460;2022-11-09T15:31:20;9.70;99.90
12870;DHT22;6503;48.572;13.460;2022-11-09T15:33:51;9.70;99.90
12870;DHT22;6503;48.572;13.460;2022-11-09T15:36:33;9.60;99.90
12870;DHT22;6503;48.572;13.460;2022-11-09T15:39:05;9.60;99.90
12870;DHT22;6503;48.572;13.460;2022-11-09T15:41:35;9.40;99.90
12870;DHT22;6503;48.572;13.460;2022-11-09T15:44:03;9.30;99.90
12870;DHT22;6503;48.572;13.460;2022-11-09T15:46:36;9.20;99.90
12870;DHT22;6503;48.572;13.460;2022-11-09T15:49:14;9.10;99.90
12870;DHT22;6503;48.572;13.460;2022-11-09T15:51:44;9.20;99.90
12870;DHT22;6503;48.572;13.460;2022-11-09T15:54:12;9.20;99.90
12870;DHT22;6503;48.572;13.460;2022-11-09T15:56:39;9.20;99.90
12870;DHT22;6503;48.572;13.460;2022-11-09T15:59:09;9.10;99.90
12870;DHT22;6503;48.572;13.460;2022-11-09T16:01:40;9.00;99.90
12870;DHT22;6503;48.572;13.460;2022-11-09T16:04:07;9.00;99.90
12870;DHT22;6503;48.572;13.460;2022-11-09T16:06:33;8.90;99.90
12870;DHT22;6503;48.572;13.460;2022-11-09T16:09:02;8.80;99.90
12870;DHT22;6503;48.572;13.460;2022-11-09T16:11:30;8.70;99.90
12870;DHT22;6503;48.572;13.460;2022-11-09T16:13:58;8.60;99.90
12870;DHT22;6503;48.572;13.460;2022-11-09T16:16:26;8.60;99.90
12870;DHT22;6503;48.572;13.460;2022-11-09T16:18:53;8.60;99.90